createdAt,value
2017-07-18T00:02:17.060Z,22.00
2017-07-18T00:04:45.732Z,22.10
2017-07-18T00:07:13.979Z,22.10
2017-07-18T00:09:42.403Z,22.20
2017-07-18T00:12:10.653Z,22.20
2017-07-18T00:14:38.909Z,22.10
2017-07-18T00:17:07.203Z,21.70
2017-07-18T00:19:35.513Z,21.10
2017-07-18T00:22:03.750Z,20.80
2017-07-18T00:24:32.026Z,20.70
2017-07-18T00:27:00.256Z,20.50
2017-07-18T00:29:28.493Z,20.20
2017-07-18T00:31:56.790Z,20.20
2017-07-18T00:34:25.036Z,20.00
2017-07-18T00:36:53.324Z,20.20
2017-07-18T00:39:21.621Z,20.20
2017-07-18T00:41:49.862Z,20.10
2017-07-18T00:44:18.098Z,20.00
2017-07-18T00:46:46.765Z,20.20
2017-07-18T00:49:15.017Z,20.20
2017-07-18T00:51:43.320Z,20.30
2017-07-18T00:54:11.593Z,20.50
2017-07-18T00:56:39.829Z,20.60
2017-07-18T00:59:08.063Z,20.90
2017-07-18T01:01:36.754Z,21.40
2017-07-18T01:04:05.381Z,21.40
2017-07-18T01:06:33.634Z,21.50
2017-07-18T01:09:01.924Z,21.40
2017-07-18T01:11:30.174Z,21.40
2017-07-18T01:13:58.875Z,21.60
2017-07-18T01:16:27.173Z,21.60
2017-07-18T01:18:55.592Z,21.60
2017-07-18T01:21:23.849Z,21.50
2017-07-18T01:23:52.166Z,21.20
2017-07-18T01:26:20.794Z,20.90
2017-07-18T01:28:49.049Z,20.90
2017-07-18T01:31:17.325Z,20.50
2017-07-18T01:33:45.545Z,20.30
2017-07-18T01:36:14.164Z,19.90
2017-07-18T01:38:42.440Z,19.80
2017-07-18T01:41:10.688Z,19.80
2017-07-18T01:43:39.216Z,19.80
2017-07-18T01:46:07.472Z,19.60
2017-07-18T01:48:35.725Z,19.50
2017-07-18T01:51:03.968Z,19.40
2017-07-18T01:53:32.807Z,19.20
2017-07-18T01:56:02.106Z,18.90
2017-07-18T01:58:31.295Z,18.90
2017-07-18T02:03:40.643Z,19.20
2017-07-18T02:06:09.021Z,19.20
2017-07-18T02:08:37.259Z,19.50
2017-07-18T02:11:05.547Z,19.50
2017-07-18T02:13:33.843Z,19.50
2017-07-18T02:16:02.090Z,19.30
2017-07-18T02:18:30.340Z,19.30
2017-07-18T02:20:58.642Z,19.40
2017-07-18T02:23:26.872Z,19.20
2017-07-18T02:25:55.115Z,19.10
2017-07-18T02:28:23.383Z,19.00
2017-07-18T02:30:51.633Z,19.00
2017-07-18T02:33:19.895Z,19.20
2017-07-18T02:35:48.189Z,19.30
2017-07-18T02:38:16.433Z,19.20
2017-07-18T02:40:44.685Z,19.20
2017-07-18T02:43:13.338Z,19.20
2017-07-18T02:45:41.627Z,19.20
2017-07-18T02:48:09.937Z,19.20
2017-07-18T02:50:38.604Z,19.20
2017-07-18T02:53:06.852Z,19.20
2017-07-18T02:55:35.104Z,19.00
2017-07-18T02:58:03.376Z,18.80
2017-07-18T03:00:31.643Z,18.70
2017-07-18T03:02:59.884Z,18.70
2017-07-18T03:05:28.316Z,18.60
2017-07-18T03:07:56.555Z,18.60
2017-07-18T03:10:24.817Z,18.70
2017-07-18T03:12:53.485Z,18.50
2017-07-18T03:15:21.729Z,18.50
2017-07-18T03:17:49.979Z,18.40
2017-07-18T03:20:18.268Z,18.20
2017-07-18T03:22:46.518Z,18.30
2017-07-18T03:25:14.766Z,18.30
2017-07-18T03:27:43.137Z,18.30
2017-07-18T03:30:11.374Z,18.20
2017-07-18T03:32:39.617Z,18.10
2017-07-18T03:35:09.303Z,18.20
2017-07-18T03:37:37.562Z,18.20
2017-07-18T03:40:05.797Z,18.20
2017-07-18T03:42:34.090Z,18.40
2017-07-18T03:45:02.330Z,18.50
2017-07-18T03:47:30.832Z,18.60
2017-07-18T03:49:59.105Z,18.70
2017-07-18T03:52:27.647Z,18.80
2017-07-18T03:54:55.884Z,18.70
2017-07-18T03:57:24.158Z,18.90
2017-07-18T03:59:52.399Z,19.00
2017-07-18T04:02:21.025Z,19.20
2017-07-18T04:04:49.525Z,19.20
2017-07-18T04:07:17.764Z,19.30
2017-07-18T04:09:46.002Z,19.30
2017-07-18T04:12:14.280Z,19.40
2017-07-18T04:14:42.540Z,19.50
2017-07-18T04:17:10.788Z,19.60
2017-07-18T04:19:39.091Z,19.70
2017-07-18T04:22:07.334Z,19.80
2017-07-18T04:24:36.177Z,19.90
2017-07-18T04:27:04.942Z,20.30
2017-07-18T04:29:33.434Z,20.30
2017-07-18T04:32:01.658Z,20.40
2017-07-18T04:34:29.953Z,20.40
2017-07-18T04:36:58.241Z,20.50
2017-07-18T04:39:26.461Z,20.50
2017-07-18T04:41:54.743Z,20.60
2017-07-18T04:44:23.014Z,20.70
2017-07-18T04:46:51.658Z,20.90
2017-07-18T04:49:19.984Z,20.90
2017-07-18T04:51:48.524Z,20.90
2017-07-18T04:54:16.773Z,20.90
2017-07-18T04:56:45.274Z,20.80
2017-07-18T04:59:13.512Z,20.60
2017-07-18T05:01:41.799Z,20.30
2017-07-18T05:04:10.050Z,20.20
2017-07-18T05:06:38.531Z,20.20
2017-07-18T05:09:06.763Z,20.30
2017-07-18T05:11:35.069Z,20.50
2017-07-18T05:14:03.746Z,20.70
2017-07-18T05:16:32.383Z,20.90
2017-07-18T05:19:00.649Z,20.90
2017-07-18T05:21:28.900Z,20.90
2017-07-18T05:23:57.155Z,21.10
2017-07-18T05:26:25.915Z,21.30
2017-07-18T05:28:54.166Z,21.30
2017-07-18T05:31:22.438Z,21.80
2017-07-18T05:33:50.706Z,22.20
2017-07-18T05:36:18.976Z,22.40
2017-07-18T05:38:47.217Z,22.50
2017-07-18T05:41:15.904Z,22.70
2017-07-18T05:43:44.875Z,22.90
2017-07-18T05:46:13.110Z,22.90
2017-07-18T05:48:41.395Z,23.10
2017-07-18T05:51:09.638Z,22.90
2017-07-18T05:53:38.263Z,22.20
2017-07-18T05:56:06.586Z,22.20
2017-07-18T05:58:35.514Z,21.70
2017-07-18T06:01:03.758Z,21.80
2017-07-18T06:03:32.029Z,21.70
2017-07-18T06:06:01.797Z,22.20
2017-07-18T06:08:30.040Z,22.20
2017-07-18T06:10:58.323Z,22.60
2017-07-18T06:13:26.572Z,22.90
2017-07-18T06:15:55.493Z,23.50
2017-07-18T06:18:25.279Z,23.50
2017-07-18T06:20:54.109Z,23.70
2017-07-18T06:25:57.747Z,24.20
2017-07-18T06:28:25.996Z,24.20
2017-07-18T06:30:54.456Z,24.20
2017-07-18T06:33:22.759Z,24.20
2017-07-18T06:35:51.045Z,24.20
2017-07-18T06:38:19.285Z,24.20
2017-07-18T06:40:47.554Z,24.20
2017-07-18T06:43:16.182Z,24.30
2017-07-18T06:45:44.429Z,24.30
2017-07-18T06:48:12.737Z,24.40
2017-07-18T06:50:41.137Z,24.50
2017-07-18T06:53:09.364Z,24.50
2017-07-18T06:55:37.672Z,24.50
2017-07-18T06:58:05.949Z,24.70
2017-07-18T07:00:34.228Z,24.70
2017-07-18T07:03:02.492Z,24.70
2017-07-18T07:05:30.725Z,24.90
2017-07-18T07:07:59.850Z,25.20
2017-07-18T07:10:28.121Z,25.20
2017-07-18T07:12:56.350Z,25.30
2017-07-18T07:15:26.269Z,25.30
2017-07-18T07:17:54.859Z,25.60
2017-07-18T07:20:23.496Z,26.00
2017-07-18T07:22:51.753Z,26.00
2017-07-18T07:25:20.024Z,25.90
2017-07-18T07:27:48.381Z,26.10
2017-07-18T07:30:17.056Z,26.10
2017-07-18T07:32:45.395Z,26.10
2017-07-18T07:35:13.871Z,26.20
2017-07-18T07:37:42.128Z,26.30
2017-07-18T07:40:10.410Z,26.50
2017-07-18T07:42:38.654Z,26.80
2017-07-18T07:45:06.903Z,27.00
2017-07-18T07:47:35.182Z,27.30
2017-07-18T07:50:03.584Z,27.20
2017-07-18T07:52:32.227Z,27.60
2017-07-18T07:55:00.546Z,27.50
2017-07-18T07:57:28.791Z,27.60
2017-07-18T07:59:57.275Z,27.70
2017-07-18T08:02:25.935Z,27.70
2017-07-18T08:04:54.156Z,27.70
2017-07-18T08:07:22.395Z,28.00
2017-07-18T08:09:50.673Z,28.50
2017-07-18T08:12:18.926Z,28.90
2017-07-18T08:14:47.188Z,29.50
2017-07-18T08:17:15.438Z,29.90
2017-07-18T08:19:43.660Z,30.10
2017-07-18T08:22:11.946Z,30.00
2017-07-18T08:24:40.534Z,30.10
2017-07-18T08:27:09.296Z,30.70
2017-07-18T08:29:37.532Z,30.70
2017-07-18T08:32:05.838Z,30.80
2017-07-18T08:34:34.143Z,30.70
2017-07-18T08:37:02.420Z,30.30
2017-07-18T08:39:30.674Z,30.10
2017-07-18T08:41:58.996Z,30.30
2017-07-18T08:44:27.228Z,30.40
2017-07-18T08:46:55.635Z,30.30
2017-07-18T08:49:23.879Z,30.20
2017-07-18T08:51:52.398Z,30.40
2017-07-18T08:54:20.657Z,30.70
2017-07-18T08:56:49.278Z,31.00
2017-07-18T08:59:17.527Z,31.10
2017-07-18T09:01:45.790Z,31.00
2017-07-18T09:04:14.048Z,30.60
2017-07-18T09:06:42.320Z,30.40
2017-07-18T09:09:10.578Z,30.50
2017-07-18T09:11:38.981Z,30.80
2017-07-18T09:14:07.373Z,31.10
2017-07-18T09:16:35.621Z,31.60
2017-07-18T09:19:03.861Z,32.20
2017-07-18T09:21:32.513Z,33.10
2017-07-18T09:24:00.849Z,33.00
2017-07-18T09:26:29.091Z,33.30
2017-07-18T09:28:57.448Z,33.60
2017-07-18T09:31:25.680Z,33.90
2017-07-18T09:33:53.960Z,34.00
2017-07-18T09:36:22.226Z,34.00
2017-07-18T09:38:50.469Z,33.80
2017-07-18T09:41:18.697Z,34.00
2017-07-18T09:43:47.012Z,34.20
2017-07-18T09:46:15.253Z,33.70
2017-07-18T09:48:43.489Z,33.10
2017-07-18T09:51:11.757Z,31.90
2017-07-18T09:53:39.992Z,31.60
2017-07-18T09:56:09.355Z,31.90
2017-07-18T09:58:37.634Z,31.80
2017-07-18T10:01:05.864Z,31.10
2017-07-18T10:03:34.115Z,30.70
2017-07-18T10:06:02.435Z,30.90
2017-07-18T10:08:30.902Z,31.10
2017-07-18T10:10:59.156Z,30.90
2017-07-18T10:13:27.487Z,30.80
2017-07-18T10:15:56.124Z,31.30
2017-07-18T10:18:24.363Z,31.30
2017-07-18T10:20:52.656Z,31.20
2017-07-18T10:23:20.929Z,31.30
2017-07-18T10:25:49.172Z,31.30
2017-07-18T10:28:17.561Z,31.20
2017-07-18T10:30:45.837Z,31.60
2017-07-18T10:33:14.893Z,31.70
2017-07-18T10:35:43.847Z,31.80
2017-07-18T10:38:12.103Z,32.00
2017-07-18T10:40:40.349Z,32.00
2017-07-18T10:43:08.644Z,32.50
2017-07-18T10:45:36.920Z,32.90
2017-07-18T10:48:05.807Z,33.00
2017-07-18T10:50:34.563Z,33.70
2017-07-18T10:53:02.808Z,33.70
2017-07-18T10:55:31.061Z,33.90
2017-07-18T10:57:59.358Z,34.10
2017-07-18T11:00:31.566Z,34.10
2017-07-18T11:03:00.260Z,33.80
2017-07-18T11:05:28.917Z,33.70
2017-07-18T11:07:57.161Z,33.80
2017-07-18T11:10:25.444Z,33.70
2017-07-18T11:12:53.698Z,33.10
2017-07-18T11:15:22.152Z,33.00
2017-07-18T11:17:50.600Z,33.10
2017-07-18T11:20:18.842Z,33.20
2017-07-18T11:22:47.145Z,33.60
2017-07-18T11:25:16.101Z,34.00
2017-07-18T11:27:44.559Z,34.20
2017-07-18T11:30:13.192Z,33.40
2017-07-18T11:32:41.696Z,33.40
2017-07-18T11:35:09.941Z,32.70
2017-07-18T11:37:38.185Z,32.40
2017-07-18T11:40:07.005Z,33.30
2017-07-18T11:42:35.274Z,33.30
2017-07-18T11:45:03.501Z,33.60
2017-07-18T11:47:31.768Z,33.70
2017-07-18T11:50:00.019Z,33.80
2017-07-18T11:52:28.487Z,33.40
2017-07-18T11:54:56.756Z,33.60
2017-07-18T11:57:25.012Z,33.60
2017-07-18T11:59:53.641Z,32.70
2017-07-18T12:02:22.081Z,32.70
2017-07-18T12:04:50.368Z,33.00
2017-07-18T12:07:18.636Z,33.50
2017-07-18T12:09:46.905Z,33.50
2017-07-18T12:12:15.579Z,32.90
2017-07-18T12:14:43.814Z,33.10
2017-07-18T12:17:12.379Z,33.50
2017-07-18T12:19:40.638Z,33.80
2017-07-18T12:22:08.869Z,33.50
2017-07-18T12:24:37.245Z,33.10
2017-07-18T12:27:05.512Z,32.50
2017-07-18T12:29:33.744Z,32.60
2017-07-18T12:32:02.419Z,32.30
2017-07-18T12:34:30.664Z,32.10
2017-07-18T12:36:58.936Z,32.50
2017-07-18T12:39:27.216Z,32.80
2017-07-18T12:41:55.485Z,32.60
2017-07-18T12:44:23.750Z,32.50
2017-07-18T12:46:52.016Z,33.00
2017-07-18T12:49:20.259Z,33.50
2017-07-18T12:51:48.532Z,33.30
2017-07-18T12:54:17.095Z,33.20
2017-07-18T12:56:45.322Z,33.00
2017-07-18T12:59:13.573Z,33.30
2017-07-18T13:01:42.053Z,33.70
2017-07-18T13:04:10.276Z,33.40
2017-07-18T13:06:38.951Z,32.50
2017-07-18T13:09:07.236Z,32.30
2017-07-18T13:11:35.486Z,32.00
2017-07-18T13:14:03.727Z,32.10
2017-07-18T13:16:32.061Z,32.30
2017-07-18T13:19:00.292Z,32.70
2017-07-18T13:21:28.542Z,32.80
2017-07-18T13:23:56.926Z,32.70
2017-07-18T13:26:25.216Z,32.70
2017-07-18T13:28:53.609Z,32.50
2017-07-18T13:31:21.874Z,32.00
2017-07-18T13:33:50.109Z,31.90
2017-07-18T13:36:18.374Z,32.20
2017-07-18T13:38:47.142Z,32.70
2017-07-18T13:41:15.381Z,33.10
2017-07-18T13:43:43.617Z,33.50
2017-07-18T13:46:12.044Z,33.20
2017-07-18T13:48:40.496Z,33.10
2017-07-18T13:51:09.127Z,33.50
2017-07-18T13:53:37.565Z,33.50
2017-07-18T13:56:06.605Z,33.70
2017-07-18T13:58:34.878Z,33.70
2017-07-18T14:01:03.144Z,33.80
2017-07-18T14:03:31.396Z,33.60
2017-07-18T14:05:59.643Z,32.80
2017-07-18T14:08:28.216Z,32.10
2017-07-18T14:10:56.456Z,32.20
2017-07-18T14:13:24.693Z,32.50
2017-07-18T14:15:53.009Z,32.60
2017-07-18T14:18:21.259Z,32.70
2017-07-18T14:20:49.494Z,32.80
2017-07-18T14:23:17.984Z,32.90
2017-07-18T14:25:46.224Z,33.00
2017-07-18T14:28:14.492Z,33.20
2017-07-18T14:30:42.778Z,33.30
2017-07-18T14:33:11.024Z,33.30
2017-07-18T14:35:39.319Z,32.80
2017-07-18T14:38:07.840Z,32.60
2017-07-18T14:40:36.098Z,32.70
2017-07-18T14:43:04.335Z,32.00
2017-07-18T14:45:32.615Z,31.80
2017-07-18T14:48:00.855Z,31.90
2017-07-18T14:50:29.129Z,31.40
2017-07-18T14:52:57.423Z,30.80
2017-07-18T14:55:25.662Z,30.20
2017-07-18T14:57:53.933Z,29.50
2017-07-18T15:00:22.364Z,29.30
2017-07-18T15:02:50.635Z,29.10
2017-07-18T15:05:18.965Z,29.50
2017-07-18T15:07:47.257Z,29.90
2017-07-18T15:10:15.513Z,30.10
2017-07-18T15:12:43.823Z,30.00
2017-07-18T15:15:12.159Z,29.50
2017-07-18T15:17:40.414Z,29.30
2017-07-18T15:20:08.664Z,29.30
2017-07-18T15:22:36.935Z,29.20
2017-07-18T15:25:05.581Z,29.20
2017-07-18T15:27:34.056Z,29.20
2017-07-18T15:30:02.375Z,29.20
2017-07-18T15:32:30.658Z,29.10
2017-07-18T15:34:58.961Z,29.10
2017-07-18T15:37:27.489Z,29.10
2017-07-18T15:39:55.735Z,29.00
2017-07-18T15:42:23.971Z,28.90
2017-07-18T15:44:52.255Z,28.50
2017-07-18T15:47:20.491Z,28.50
2017-07-18T15:49:48.740Z,28.50
2017-07-18T15:52:17.114Z,28.70
2017-07-18T15:54:45.354Z,28.70
2017-07-18T15:57:13.633Z,28.80
2017-07-18T15:59:41.913Z,29.00
2017-07-18T16:02:10.158Z,28.90
2017-07-18T16:04:38.401Z,28.40
2017-07-18T16:07:06.661Z,28.20
2017-07-18T16:09:34.964Z,28.30
2017-07-18T16:12:03.297Z,28.40
2017-07-18T16:14:31.582Z,28.20
2017-07-18T16:17:00.053Z,28.00
2017-07-18T16:19:28.299Z,28.10
2017-07-18T16:21:56.593Z,28.40
2017-07-18T16:24:24.860Z,28.50
2017-07-18T16:26:53.567Z,28.20
2017-07-18T16:29:22.072Z,28.20
2017-07-18T16:31:50.293Z,28.00
2017-07-18T16:34:19.452Z,28.00
2017-07-18T16:36:47.761Z,28.00
2017-07-18T16:39:16.006Z,28.10
2017-07-18T16:41:44.247Z,28.30
2017-07-18T16:44:12.748Z,28.30
2017-07-18T16:46:40.996Z,28.00
2017-07-18T16:49:09.257Z,27.50
2017-07-18T16:51:37.635Z,27.50
2017-07-18T16:54:06.304Z,27.10
2017-07-18T16:56:34.592Z,27.10
2017-07-18T16:59:02.993Z,27.00
2017-07-18T17:01:31.665Z,26.80
2017-07-18T17:03:59.968Z,26.90
2017-07-18T17:06:28.384Z,27.00
2017-07-18T17:08:56.870Z,27.20
2017-07-18T17:11:25.126Z,27.30
2017-07-18T17:13:53.405Z,27.20
2017-07-18T17:16:21.677Z,27.10
2017-07-18T17:18:49.928Z,26.80
2017-07-18T17:21:18.236Z,26.80
2017-07-18T17:23:46.613Z,26.80
2017-07-18T17:26:14.864Z,26.70
2017-07-18T17:28:43.154Z,26.60
2017-07-18T17:31:11.451Z,26.30
2017-07-18T17:33:39.701Z,26.00
2017-07-18T17:36:08.029Z,25.90
2017-07-18T17:38:36.271Z,25.90
2017-07-18T17:41:04.500Z,26.00
2017-07-18T17:43:33.033Z,26.20
2017-07-18T17:46:01.285Z,26.30
2017-07-18T17:48:29.545Z,26.00
2017-07-18T17:50:57.824Z,25.80
2017-07-18T17:53:26.090Z,25.50
2017-07-18T17:55:54.371Z,25.50
2017-07-18T17:58:22.727Z,25.50
2017-07-18T18:00:51.399Z,25.40
2017-07-18T18:03:20.073Z,25.40
2017-07-18T18:05:49.146Z,25.40
2017-07-18T18:08:17.407Z,25.50
2017-07-18T18:10:45.655Z,25.50
2017-07-18T18:13:14.292Z,25.50
2017-07-18T18:15:42.670Z,25.40
2017-07-18T18:18:11.692Z,25.40
2017-07-18T18:20:39.999Z,25.20
2017-07-18T18:23:08.305Z,25.40
2017-07-18T18:28:29.281Z,25.10
2017-07-18T18:30:57.515Z,24.90
2017-07-18T18:33:26.629Z,25.10
2017-07-18T18:35:55.801Z,25.20
2017-07-18T18:38:24.145Z,25.20
2017-07-18T18:40:52.401Z,25.40
2017-07-18T18:43:20.673Z,25.60
2017-07-18T18:45:48.929Z,25.70
2017-07-18T18:48:17.588Z,25.60
2017-07-18T18:50:45.867Z,25.60
2017-07-18T18:53:14.212Z,25.60
2017-07-18T18:55:42.608Z,25.60
2017-07-18T18:58:11.099Z,25.70
2017-07-18T19:00:39.377Z,25.80
2017-07-18T19:03:07.629Z,25.70
2017-07-18T19:05:35.971Z,25.40
2017-07-18T19:08:04.332Z,25.20
2017-07-18T19:10:32.572Z,25.00
2017-07-18T19:13:00.817Z,25.00
2017-07-18T19:15:29.129Z,25.00
2017-07-18T19:17:57.380Z,25.00
2017-07-18T19:20:25.629Z,25.00
2017-07-18T19:22:54.322Z,24.90
2017-07-18T19:25:22.615Z,24.90
2017-07-18T19:27:50.935Z,24.80
2017-07-18T19:30:19.270Z,24.90
2017-07-18T19:32:47.544Z,24.90
2017-07-18T19:35:15.882Z,24.70
2017-07-18T19:37:44.158Z,24.50
2017-07-18T19:40:12.401Z,24.30
2017-07-18T19:42:40.686Z,24.20
2017-07-18T19:45:08.923Z,24.20
2017-07-18T19:47:37.173Z,24.20
2017-07-18T19:50:05.665Z,23.90
2017-07-18T19:52:34.126Z,23.90
2017-07-18T19:55:02.579Z,24.00
2017-07-18T19:57:30.933Z,23.80
2017-07-18T19:59:59.241Z,23.70
2017-07-18T20:02:27.593Z,23.60
2017-07-18T20:04:56.502Z,23.50
2017-07-18T20:07:24.807Z,23.40
2017-07-18T20:09:53.412Z,23.40
2017-07-18T20:12:22.095Z,23.50
2017-07-18T20:14:51.910Z,23.40
2017-07-18T20:17:20.465Z,23.30
2017-07-18T20:19:49.471Z,23.30
2017-07-18T20:22:17.788Z,23.30
2017-07-18T20:24:46.368Z,23.20
2017-07-18T20:27:14.609Z,23.10
2017-07-18T20:29:43.249Z,22.90
2017-07-18T20:32:11.703Z,22.90
2017-07-18T20:34:40.785Z,22.90
2017-07-18T20:37:09.804Z,22.90
2017-07-18T20:39:38.111Z,23.00
2017-07-18T20:42:06.362Z,22.90
2017-07-18T20:44:34.618Z,22.70
2017-07-18T20:47:03.289Z,22.50
2017-07-18T20:49:31.557Z,22.60
2017-07-18T20:52:00.203Z,22.60
2017-07-18T20:54:28.558Z,22.60
2017-07-18T20:56:56.857Z,22.60
2017-07-18T20:59:25.216Z,22.50
2017-07-18T21:01:53.545Z,22.50
2017-07-18T21:04:22.201Z,22.10
2017-07-18T21:06:50.486Z,22.10
2017-07-18T21:09:19.125Z,21.90
2017-07-18T21:11:47.453Z,22.00
2017-07-18T21:14:15.782Z,22.10
2017-07-18T21:16:44.042Z,22.10
2017-07-18T21:19:12.372Z,22.00
2017-07-18T21:21:40.673Z,22.30
2017-07-18T21:24:08.989Z,22.30
2017-07-18T21:26:37.283Z,22.20
2017-07-18T21:29:05.593Z,22.10
2017-07-18T21:31:34.053Z,22.10
2017-07-18T21:34:02.305Z,21.90
2017-07-18T21:36:30.983Z,21.90
2017-07-18T21:38:59.262Z,21.90
2017-07-18T21:41:27.508Z,21.90
2017-07-18T21:43:55.809Z,21.80
2017-07-18T21:46:24.066Z,21.70
2017-07-18T21:48:52.357Z,21.60
2017-07-18T21:51:20.604Z,21.60
2017-07-18T21:53:49.247Z,21.40
2017-07-18T21:56:17.545Z,21.40
2017-07-18T21:58:45.789Z,21.40
2017-07-18T22:01:14.555Z,21.40
2017-07-18T22:03:42.915Z,21.40
2017-07-18T22:06:11.167Z,21.20
2017-07-18T22:08:39.464Z,21.00
2017-07-18T22:11:07.875Z,21.00
2017-07-18T22:13:36.236Z,21.00
2017-07-18T22:16:04.499Z,20.90
2017-07-18T22:18:33.141Z,20.80
2017-07-18T22:21:01.512Z,20.80
2017-07-18T22:23:29.773Z,20.70
2017-07-18T22:25:58.014Z,20.50
2017-07-18T22:28:26.678Z,20.50
2017-07-18T22:30:54.920Z,20.50
2017-07-18T22:33:23.163Z,20.50
2017-07-18T22:35:51.670Z,20.50
2017-07-18T22:38:19.919Z,20.50
2017-07-18T22:40:48.181Z,20.40
2017-07-18T22:43:16.836Z,20.20
2017-07-18T22:45:45.309Z,20.20
2017-07-18T22:48:25.316Z,20.20
2017-07-18T22:50:53.551Z,20.10
2017-07-18T22:53:21.803Z,20.10
2017-07-18T22:55:50.485Z,20.20
2017-07-18T22:58:18.729Z,20.20
2017-07-18T23:00:47.001Z,20.20
2017-07-18T23:03:15.286Z,20.10
2017-07-18T23:05:43.540Z,19.90
2017-07-18T23:08:11.855Z,19.90
2017-07-18T23:10:40.261Z,19.80
2017-07-18T23:13:08.495Z,19.80
2017-07-18T23:15:36.744Z,19.80
2017-07-18T23:18:05.405Z,19.70
2017-07-18T23:20:34.122Z,19.70
2017-07-18T23:23:02.749Z,19.50
2017-07-18T23:25:31.044Z,19.50
2017-07-18T23:27:59.288Z,19.50
2017-07-18T23:30:27.521Z,19.50
2017-07-18T23:32:56.170Z,19.40
2017-07-18T23:35:24.644Z,19.40
2017-07-18T23:37:52.916Z,19.30
2017-07-18T23:40:21.186Z,19.30
2017-07-18T23:42:49.432Z,19.30
2017-07-18T23:45:17.739Z,19.40
2017-07-18T23:47:45.993Z,19.30
2017-07-18T23:50:14.236Z,19.20
2017-07-18T23:52:42.944Z,19.40
2017-07-18T23:55:11.262Z,19.40
2017-07-18T23:57:39.495Z,19.30
